createdAt,value
2023-12-11T00:01:13.271Z,10.30
2023-12-11T00:03:41.500Z,10.40
2023-12-11T00:06:10.202Z,10.40
2023-12-11T00:08:38.459Z,10.40
2023-12-11T00:11:10.099Z,10.40
2023-12-11T00:13:38.057Z,10.30
2023-12-11T00:16:06.772Z,10.40
2023-12-11T00:18:34.866Z,10.30
2023-12-11T00:21:03.062Z,10.30
2023-12-11T00:23:30.992Z,10.30
2023-12-11T00:25:58.916Z,10.30
2023-12-11T00:28:28.645Z,10.20
2023-12-11T00:30:56.661Z,10.30
2023-12-11T00:33:24.650Z,10.30
2023-12-11T00:35:52.615Z,10.30
2023-12-11T00:38:20.625Z,10.30
2023-12-11T00:40:48.583Z,10.30
2023-12-11T00:43:16.560Z,10.40
2023-12-11T00:45:46.262Z,10.40
2023-12-11T00:48:14.692Z,10.40
2023-12-11T00:50:42.689Z,10.40
2023-12-11T00:53:10.630Z,10.40
2023-12-11T00:55:38.560Z,10.40
2023-12-11T00:58:06.554Z,10.50
2023-12-11T01:00:34.538Z,10.50
2023-12-11T01:03:04.302Z,10.50
2023-12-11T01:05:32.607Z,10.50
2023-12-11T01:08:00.645Z,10.50
2023-12-11T01:10:28.653Z,10.60
2023-12-11T01:12:56.888Z,10.60
2023-12-11T01:15:24.826Z,10.50
2023-12-11T01:17:52.948Z,10.60
2023-12-11T01:20:22.409Z,10.50
2023-12-11T01:22:50.353Z,10.60
2023-12-11T01:25:18.310Z,10.50
2023-12-11T01:27:46.311Z,10.60
2023-12-11T01:30:14.445Z,10.50
2023-12-11T01:32:42.429Z,10.50
2023-12-11T01:35:10.782Z,10.50
2023-12-11T01:37:40.094Z,10.50
2023-12-11T01:40:09.749Z,10.40
2023-12-11T01:45:06.787Z,10.40
2023-12-11T01:47:35.320Z,10.40
2023-12-11T01:50:04.284Z,10.40
2023-12-11T01:52:32.190Z,10.40
2023-12-11T01:55:01.575Z,10.30
2023-12-11T01:57:31.385Z,10.30
2023-12-11T02:02:30.686Z,10.40
2023-12-11T02:07:27.442Z,10.30
2023-12-11T02:09:55.721Z,10.30
2023-12-11T02:12:24.980Z,11.80
2023-12-11T02:14:52.876Z,10.30
2023-12-11T02:17:20.818Z,10.20
2023-12-11T02:19:48.857Z,10.20
2023-12-11T02:22:17.373Z,10.20
2023-12-11T02:24:49.945Z,10.30
2023-12-11T02:27:19.403Z,10.30
2023-12-11T02:29:47.301Z,10.30
2023-12-11T02:32:17.667Z,10.30
2023-12-11T02:34:48.722Z,10.30
2023-12-11T02:37:17.110Z,10.30
2023-12-11T02:39:46.814Z,10.20
2023-12-11T02:42:14.862Z,10.30
2023-12-11T02:44:44.123Z,10.30
2023-12-11T02:47:12.030Z,10.40
2023-12-11T02:49:40.023Z,10.30
2023-12-11T02:52:08.375Z,10.30
2023-12-11T02:54:36.434Z,10.30
2023-12-11T02:57:04.442Z,10.30
2023-12-11T02:59:32.451Z,10.20
2023-12-11T03:02:01.730Z,10.20
2023-12-11T03:04:29.837Z,10.20
2023-12-11T03:06:57.923Z,10.10
2023-12-11T03:09:25.837Z,10.10
2023-12-11T03:11:55.403Z,10.10
2023-12-11T03:14:23.305Z,10.10
2023-12-11T03:16:51.280Z,10.10
2023-12-11T03:19:20.660Z,10.00
2023-12-11T03:21:48.725Z,10.00
2023-12-11T03:24:16.691Z,10.00
2023-12-11T03:26:44.563Z,10.00
2023-12-11T03:29:12.923Z,10.00
2023-12-11T03:31:40.918Z,10.00
2023-12-11T03:34:08.923Z,9.90
2023-12-11T03:36:38.296Z,9.90
2023-12-11T03:39:08.600Z,9.90
2023-12-11T03:41:36.520Z,9.90
2023-12-11T03:44:04.592Z,9.90
2023-12-11T03:46:32.530Z,10.00
2023-12-11T03:49:00.542Z,10.00
2023-12-11T03:51:28.574Z,10.00
2023-12-11T03:56:26.427Z,10.00
2023-12-11T03:58:54.380Z,10.10
2023-12-11T04:01:22.603Z,10.10
2023-12-11T04:03:50.755Z,10.10
2023-12-11T04:06:18.863Z,10.10
2023-12-11T04:08:46.834Z,10.20
2023-12-11T04:11:16.084Z,10.20
2023-12-11T04:13:44.074Z,10.20
2023-12-11T04:16:13.110Z,10.20
2023-12-11T04:18:42.322Z,10.20
2023-12-11T04:21:10.426Z,10.20
2023-12-11T04:23:38.382Z,10.20
2023-12-11T04:26:06.412Z,10.30
2023-12-11T04:28:35.718Z,10.30
2023-12-11T04:31:03.702Z,10.40
2023-12-11T04:33:34.192Z,10.40
2023-12-11T04:36:02.239Z,10.40
2023-12-11T04:38:30.202Z,10.40
2023-12-11T04:40:58.179Z,10.40
2023-12-11T04:43:27.092Z,10.30
2023-12-11T04:45:58.260Z,10.40
2023-12-11T04:48:26.404Z,10.50
2023-12-11T04:50:54.434Z,10.50
2023-12-11T04:53:22.337Z,10.50
2023-12-11T04:55:50.446Z,10.50
2023-12-11T04:58:18.438Z,10.50
2023-12-11T05:00:46.504Z,10.50
2023-12-11T05:03:15.936Z,10.50
2023-12-11T05:05:43.893Z,10.40
2023-12-11T05:08:11.812Z,10.40
2023-12-11T05:10:39.675Z,10.40
2023-12-11T05:13:07.798Z,10.50
2023-12-11T05:15:35.750Z,10.60
2023-12-11T05:18:03.721Z,10.60
2023-12-11T05:20:33.014Z,10.60
2023-12-11T05:23:01.012Z,10.60
2023-12-11T05:25:28.945Z,10.50
2023-12-11T05:27:56.926Z,10.50
2023-12-11T05:30:25.148Z,10.40
2023-12-11T05:32:53.162Z,10.50
2023-12-11T05:35:21.125Z,10.50
2023-12-11T05:37:50.402Z,10.50
2023-12-11T05:40:22.692Z,10.50
2023-12-11T05:42:52.261Z,10.50
2023-12-11T05:45:20.293Z,10.50
2023-12-11T05:47:48.531Z,10.50
2023-12-11T05:50:16.613Z,10.50
2023-12-11T05:52:45.419Z,10.40
2023-12-11T05:55:15.063Z,10.40
2023-12-11T05:57:43.746Z,10.40
2023-12-11T06:00:13.839Z,10.50
2023-12-11T06:02:42.021Z,10.50
2023-12-11T06:05:10.621Z,10.40
2023-12-11T06:07:38.645Z,10.40
2023-12-11T06:10:07.908Z,10.40
2023-12-11T06:12:37.209Z,10.40
2023-12-11T06:15:06.020Z,10.40
2023-12-11T06:17:34.452Z,10.40
2023-12-11T06:20:02.850Z,10.40
2023-12-11T06:22:30.748Z,10.40
2023-12-11T06:24:58.855Z,10.40
2023-12-11T06:27:28.780Z,10.40
2023-12-11T06:29:58.458Z,10.50
2023-12-11T06:32:26.498Z,10.50
2023-12-11T06:34:54.624Z,10.50
2023-12-11T06:37:22.633Z,10.40
2023-12-11T06:39:50.943Z,10.50
2023-12-11T06:42:19.159Z,10.40
2023-12-11T06:44:47.142Z,10.50
2023-12-11T06:47:16.460Z,10.40
2023-12-11T06:49:45.464Z,10.40
2023-12-11T06:52:13.964Z,10.50
2023-12-11T06:57:17.819Z,10.50
2023-12-11T06:59:45.770Z,10.50
2023-12-11T07:02:13.786Z,10.50
2023-12-11T07:04:44.334Z,10.40
2023-12-11T07:07:12.552Z,10.40
2023-12-11T07:09:41.046Z,10.50
2023-12-11T07:12:09.462Z,10.50
2023-12-11T07:14:37.358Z,10.40
2023-12-11T07:17:05.631Z,10.40
2023-12-11T07:19:33.592Z,10.40
2023-12-11T07:22:02.973Z,10.40
2023-12-11T07:24:30.909Z,10.40
2023-12-11T07:26:58.792Z,10.30
2023-12-11T07:29:26.737Z,10.30
2023-12-11T07:31:54.678Z,10.30
2023-12-11T07:36:53.016Z,10.40
2023-12-11T07:39:22.505Z,10.40
2023-12-11T07:41:50.402Z,10.40
2023-12-11T07:44:18.491Z,10.30
2023-12-11T07:46:46.385Z,10.30
2023-12-11T07:49:15.073Z,10.20
2023-12-11T07:51:44.248Z,10.20
2023-12-11T07:54:12.268Z,10.20
2023-12-11T07:56:42.086Z,10.20
2023-12-11T07:59:11.281Z,10.30
2023-12-11T08:01:39.281Z,10.20
2023-12-11T08:04:07.507Z,10.20
2023-12-11T08:06:35.687Z,10.20
2023-12-11T08:09:04.141Z,10.30
2023-12-11T08:11:32.069Z,10.30
2023-12-11T08:14:01.601Z,10.30
2023-12-11T08:16:29.575Z,10.30
2023-12-11T08:18:57.677Z,10.30
2023-12-11T08:21:25.702Z,10.30
2023-12-11T08:23:53.642Z,10.30
2023-12-11T08:26:21.938Z,10.20
2023-12-11T08:28:50.693Z,10.30
2023-12-11T08:33:48.613Z,10.40
2023-12-11T08:36:16.612Z,10.40
2023-12-11T08:38:44.738Z,10.50
2023-12-11T08:41:12.874Z,10.60
2023-12-11T08:43:41.311Z,10.60
2023-12-11T08:46:09.588Z,10.60
2023-12-11T08:48:39.114Z,10.70
2023-12-11T08:51:07.794Z,10.80
2023-12-11T08:53:35.890Z,10.80
2023-12-11T08:56:04.022Z,10.90
2023-12-11T08:58:31.939Z,11.00
2023-12-11T09:00:59.969Z,11.00
2023-12-11T09:03:28.024Z,11.10
2023-12-11T09:05:57.933Z,11.20
2023-12-11T09:08:26.674Z,11.20
2023-12-11T09:10:55.581Z,11.30
2023-12-11T09:13:28.304Z,11.40
2023-12-11T09:15:58.162Z,11.50
2023-12-11T09:18:26.446Z,11.50
2023-12-11T09:20:54.587Z,11.50
2023-12-11T09:23:23.951Z,11.60
2023-12-11T09:25:51.895Z,11.60
2023-12-11T09:28:20.009Z,11.70
2023-12-11T09:30:48.113Z,11.80
2023-12-11T09:33:16.638Z,11.90
2023-12-11T09:35:48.348Z,11.90
2023-12-11T09:40:46.032Z,11.90
2023-12-11T09:43:14.689Z,12.00
2023-12-11T09:45:45.453Z,12.00
2023-12-11T09:48:15.221Z,12.00
2023-12-11T09:50:43.768Z,12.10
2023-12-11T09:53:12.055Z,12.20
2023-12-11T09:55:40.022Z,12.30
2023-12-11T09:58:10.275Z,12.40
2023-12-11T10:00:38.715Z,12.50
2023-12-11T10:03:09.267Z,12.50
2023-12-11T10:05:38.968Z,12.50
2023-12-11T10:08:07.120Z,12.60
2023-12-11T10:10:38.417Z,12.70
2023-12-11T10:13:06.833Z,12.60
2023-12-11T10:15:37.851Z,12.60
2023-12-11T10:18:08.163Z,12.60
2023-12-11T10:20:37.780Z,12.60
2023-12-11T10:23:17.825Z,12.60
2023-12-11T10:25:49.420Z,12.50
2023-12-11T10:28:19.386Z,12.40
2023-12-11T10:30:57.112Z,12.40
2023-12-11T10:33:26.976Z,12.40
2023-12-11T10:36:09.109Z,12.50
2023-12-11T10:38:37.113Z,12.50
2023-12-11T10:41:05.489Z,12.50
2023-12-11T10:43:55.374Z,12.50
2023-12-11T10:46:30.850Z,12.70
2023-12-11T10:49:00.290Z,12.70
2023-12-11T10:51:29.833Z,12.70
2023-12-11T10:53:59.869Z,12.70
2023-12-11T10:56:28.378Z,12.80
2023-12-11T10:58:58.876Z,12.70
2023-12-11T11:01:27.042Z,12.60
2023-12-11T11:03:56.835Z,12.60
2023-12-11T11:06:24.947Z,12.70
2023-12-11T11:09:01.687Z,12.80
2023-12-11T11:11:33.913Z,12.70
2023-12-11T11:14:27.179Z,12.80
2023-12-11T11:16:56.142Z,12.80
2023-12-11T11:19:28.517Z,12.80
2023-12-11T11:22:31.253Z,12.70
2023-12-11T11:25:34.771Z,12.80
2023-12-11T11:28:03.548Z,12.80
2023-12-11T11:30:52.604Z,12.80
2023-12-11T11:33:21.836Z,12.80
2023-12-11T11:35:55.964Z,12.80
2023-12-11T11:38:53.329Z,12.80
2023-12-11T11:41:25.810Z,12.80
2023-12-11T11:44:02.161Z,12.70
2023-12-11T11:46:30.287Z,12.70
2023-12-11T11:48:58.219Z,12.60
2023-12-11T11:51:30.994Z,12.60
2023-12-11T11:54:01.941Z,12.70
2023-12-11T11:56:29.965Z,12.70
2023-12-11T11:59:06.382Z,12.70
2023-12-11T12:01:35.888Z,12.70
2023-12-11T12:04:04.438Z,12.70
2023-12-11T12:06:33.768Z,12.80
2023-12-11T12:09:02.212Z,12.70
2023-12-11T12:11:31.380Z,12.80
2023-12-11T12:13:59.475Z,12.80
2023-12-11T12:16:30.681Z,12.80
2023-12-11T12:24:04.709Z,12.70
2023-12-11T12:26:33.520Z,12.80
2023-12-11T12:29:02.141Z,12.80
2023-12-11T12:31:31.718Z,12.90
2023-12-11T12:33:59.849Z,12.90
2023-12-11T12:36:27.768Z,13.00
2023-12-11T12:38:57.149Z,13.00
2023-12-11T12:41:26.829Z,13.00
2023-12-11T12:43:59.861Z,12.90
2023-12-11T12:46:29.368Z,12.90
2023-12-11T12:48:57.582Z,12.80
2023-12-11T12:51:25.549Z,12.80
2023-12-11T12:53:57.423Z,12.90
2023-12-11T12:58:58.291Z,12.80
2023-12-11T13:01:26.280Z,12.80
2023-12-11T13:04:00.741Z,12.70
2023-12-11T13:06:28.872Z,12.70
2023-12-11T13:08:57.067Z,12.70
2023-12-11T13:11:40.255Z,12.60
2023-12-11T13:14:09.156Z,12.70
2023-12-11T13:16:37.433Z,12.60
2023-12-11T13:19:06.349Z,12.60
2023-12-11T13:21:34.671Z,12.70
2023-12-11T13:24:02.596Z,12.70
2023-12-11T13:26:31.906Z,12.90
2023-12-11T13:28:59.735Z,12.70
2023-12-11T13:31:27.680Z,12.70
2023-12-11T13:33:55.711Z,12.70
2023-12-11T13:38:51.872Z,12.80
2023-12-11T13:41:19.859Z,12.80
2023-12-11T13:43:49.060Z,12.90
2023-12-11T13:46:17.140Z,12.90
2023-12-11T13:48:46.395Z,12.90
2023-12-11T13:51:14.929Z,12.80
2023-12-11T13:53:42.851Z,12.70
2023-12-11T13:56:11.126Z,12.70
2023-12-11T13:58:39.053Z,12.80
2023-12-11T14:01:09.336Z,12.80
2023-12-11T14:03:37.246Z,12.80
2023-12-11T14:06:05.562Z,12.60
2023-12-11T14:08:33.571Z,12.60
2023-12-11T14:11:01.404Z,12.60
2023-12-11T14:13:29.687Z,12.50
2023-12-11T14:15:57.516Z,12.40
2023-12-11T14:18:26.764Z,12.30
2023-12-11T14:20:54.772Z,12.20
2023-12-11T14:23:22.907Z,12.20
2023-12-11T14:25:50.900Z,12.20
2023-12-11T14:28:19.090Z,12.20
2023-12-11T14:30:48.524Z,12.20
2023-12-11T14:33:16.793Z,12.20
2023-12-11T14:35:47.708Z,12.20
2023-12-11T14:38:17.360Z,12.20
2023-12-11T14:40:45.478Z,12.20
2023-12-11T14:43:13.446Z,12.20
2023-12-11T14:45:41.352Z,12.20
2023-12-11T14:48:09.241Z,12.30
2023-12-11T14:50:37.087Z,12.40
2023-12-11T14:55:41.484Z,12.50
2023-12-11T14:58:11.573Z,12.50
2023-12-11T15:00:39.509Z,12.50
2023-12-11T15:03:07.494Z,12.50
2023-12-11T15:05:35.600Z,12.40
2023-12-11T15:08:03.416Z,12.40
2023-12-11T15:10:32.759Z,12.40
2023-12-11T15:13:00.689Z,12.40
2023-12-11T15:15:29.281Z,12.30
2023-12-11T15:17:57.158Z,12.30
2023-12-11T15:20:25.393Z,12.30
2023-12-11T15:22:53.317Z,12.30
2023-12-11T15:27:51.275Z,12.30
2023-12-11T15:30:19.195Z,12.30
2023-12-11T15:32:49.206Z,12.30
2023-12-11T15:35:17.952Z,12.30
2023-12-11T15:37:46.204Z,12.40
2023-12-11T15:40:14.688Z,12.30
2023-12-11T15:42:43.427Z,12.20
2023-12-11T15:45:12.925Z,12.20
2023-12-11T15:48:00.235Z,12.20
2023-12-11T15:50:29.735Z,12.20
2023-12-11T15:52:59.280Z,12.30
2023-12-11T15:55:27.265Z,12.30
2023-12-11T15:57:55.319Z,12.20
2023-12-11T16:00:24.630Z,12.30
2023-12-11T16:02:53.931Z,12.20
2023-12-11T16:05:21.989Z,12.10
2023-12-11T16:07:49.917Z,12.20
2023-12-11T16:12:46.180Z,12.10
2023-12-11T16:15:14.575Z,12.00
2023-12-11T16:17:44.650Z,12.00
2023-12-11T16:20:13.279Z,12.00
2023-12-11T16:22:41.307Z,12.00
2023-12-11T16:25:11.292Z,11.90
2023-12-11T16:27:39.368Z,11.90
2023-12-11T16:30:10.213Z,11.80
2023-12-11T16:32:38.117Z,11.80
2023-12-11T16:35:08.547Z,11.70
2023-12-11T16:37:36.517Z,11.70
2023-12-11T16:40:07.600Z,11.70
2023-12-11T16:42:36.276Z,11.70
2023-12-11T16:45:07.241Z,11.60
2023-12-11T16:47:36.434Z,11.60
2023-12-11T16:50:07.914Z,11.60
2023-12-11T16:52:38.092Z,11.60
2023-12-11T16:55:07.599Z,11.60
2023-12-11T16:57:35.540Z,11.60
2023-12-11T17:00:03.565Z,11.50
2023-12-11T17:02:31.839Z,11.50
2023-12-11T17:05:00.053Z,11.50
2023-12-11T17:07:28.085Z,11.60
2023-12-11T17:09:59.062Z,11.60
2023-12-11T17:12:27.141Z,11.50
2023-12-11T17:14:57.542Z,11.50
2023-12-11T17:17:27.019Z,11.50
2023-12-11T17:19:55.006Z,11.50
2023-12-11T17:22:22.972Z,11.40
2023-12-11T17:24:50.953Z,11.40
2023-12-11T17:27:20.277Z,11.40
2023-12-11T17:29:48.680Z,11.40
2023-12-11T17:32:16.651Z,11.40
2023-12-11T17:34:44.570Z,11.30
2023-12-11T17:37:12.646Z,11.30
2023-12-11T17:39:40.513Z,11.40
2023-12-11T17:42:08.551Z,11.30
2023-12-11T17:44:37.693Z,11.30
2023-12-11T17:47:06.123Z,11.30
2023-12-11T17:49:34.014Z,11.30
2023-12-11T17:52:01.921Z,11.30
2023-12-11T17:54:29.765Z,12.20
2023-12-11T17:56:57.779Z,11.30
2023-12-11T17:59:25.606Z,11.30
2023-12-11T18:01:54.898Z,11.30
2023-12-11T18:04:22.821Z,11.40
2023-12-11T18:06:50.974Z,11.40
2023-12-11T18:09:18.801Z,11.40
2023-12-11T18:11:46.975Z,11.50
2023-12-11T18:14:14.848Z,11.50
2023-12-11T18:16:43.085Z,11.50
2023-12-11T18:19:12.679Z,11.50
2023-12-11T18:21:42.437Z,11.40
2023-12-11T18:24:10.466Z,11.50
2023-12-11T18:26:40.098Z,11.50
2023-12-11T18:29:07.950Z,11.50
2023-12-11T18:31:35.824Z,11.60
2023-12-11T18:34:05.107Z,11.60
2023-12-11T18:36:40.283Z,11.60
2023-12-11T18:39:10.272Z,11.60
2023-12-11T18:41:38.177Z,11.60
2023-12-11T18:44:06.257Z,11.60
2023-12-11T18:46:34.246Z,11.50
2023-12-11T18:49:02.440Z,11.50
2023-12-11T18:51:31.745Z,11.40
2023-12-11T18:54:01.067Z,11.50
2023-12-11T18:56:28.929Z,11.50
2023-12-11T18:58:56.827Z,11.30
2023-12-11T19:01:25.489Z,11.40
2023-12-11T19:03:53.759Z,11.40
2023-12-11T19:06:21.792Z,11.40
2023-12-11T19:08:49.662Z,11.50
2023-12-11T19:11:18.990Z,11.50
2023-12-11T19:13:46.829Z,11.60
2023-12-11T19:16:15.222Z,11.60
2023-12-11T19:18:43.140Z,11.60
2023-12-11T19:21:11.277Z,11.60
2023-12-11T19:23:39.176Z,11.70
2023-12-11T19:26:07.208Z,11.60
2023-12-11T19:28:36.425Z,11.60
2023-12-11T19:31:04.645Z,11.50
2023-12-11T19:33:32.690Z,11.40
2023-12-11T19:36:00.871Z,11.40
2023-12-11T19:38:29.112Z,11.40
2023-12-11T19:41:00.136Z,11.50
2023-12-11T19:43:27.966Z,11.40
2023-12-11T19:45:57.196Z,11.40
2023-12-11T19:48:25.404Z,11.40
2023-12-11T19:50:53.726Z,11.40
2023-12-11T19:53:22.232Z,11.40
2023-12-11T19:55:50.087Z,11.50
2023-12-11T19:58:19.715Z,11.50
2023-12-11T20:00:48.980Z,11.50
2023-12-11T20:03:18.410Z,11.50
2023-12-11T20:05:46.451Z,11.50
2023-12-11T20:08:14.480Z,11.40
2023-12-11T20:10:42.407Z,11.40
2023-12-11T20:13:10.424Z,11.30
2023-12-11T20:15:38.529Z,11.30
2023-12-11T20:18:07.508Z,11.30
2023-12-11T20:23:05.257Z,11.10
2023-12-11T20:25:33.429Z,11.00
2023-12-11T20:28:01.604Z,10.90
2023-12-11T20:30:29.567Z,10.90
2023-12-11T20:32:57.532Z,10.90
2023-12-11T20:35:25.425Z,10.90
2023-12-11T20:37:54.594Z,10.90
2023-12-11T20:40:22.426Z,10.90
2023-12-11T20:42:50.282Z,10.90
2023-12-11T20:45:20.185Z,10.80
2023-12-11T20:47:49.342Z,10.90
2023-12-11T20:50:17.462Z,10.90
2023-12-11T20:52:45.277Z,10.90
2023-12-11T20:55:14.789Z,10.90
2023-12-11T20:57:42.720Z,11.00
2023-12-11T21:00:12.522Z,10.90
2023-12-11T21:02:40.650Z,10.90
2023-12-11T21:05:09.057Z,10.90
2023-12-11T21:07:38.309Z,10.80
2023-12-11T21:10:06.935Z,10.90
2023-12-11T21:12:36.132Z,10.90
2023-12-11T21:15:04.456Z,10.90
2023-12-11T21:17:32.916Z,10.80
2023-12-11T21:20:01.072Z,10.80
2023-12-11T21:22:29.036Z,10.90
2023-12-11T21:24:57.843Z,10.90
2023-12-11T21:27:25.895Z,10.80
2023-12-11T21:32:23.420Z,10.80
2023-12-11T21:34:51.483Z,10.80
2023-12-11T21:37:19.547Z,10.80
2023-12-11T21:39:47.554Z,10.90
2023-12-11T21:42:15.746Z,10.80
2023-12-11T21:44:43.659Z,10.70
2023-12-11T21:47:14.589Z,10.80
2023-12-11T21:49:44.650Z,10.80
2023-12-11T21:52:12.816Z,10.60
2023-12-11T21:54:40.730Z,10.80
2023-12-11T21:57:08.575Z,10.70
2023-12-11T21:59:42.729Z,10.70
2023-12-11T22:02:17.304Z,10.70
2023-12-11T22:04:45.254Z,10.70
2023-12-11T22:07:15.820Z,10.70
2023-12-11T22:09:45.796Z,10.80
2023-12-11T22:12:13.641Z,10.70
2023-12-11T22:14:41.916Z,10.70
2023-12-11T22:17:09.775Z,10.70
2023-12-11T22:19:39.012Z,10.70
2023-12-11T22:22:06.905Z,10.70
2023-12-11T22:24:34.822Z,10.70
2023-12-11T22:27:02.678Z,10.70
2023-12-11T22:29:30.528Z,10.80
2023-12-11T22:36:58.277Z,10.80
2023-12-11T22:39:26.236Z,10.80
2023-12-11T22:41:54.054Z,10.80
2023-12-11T22:44:22.009Z,10.70
2023-12-11T22:46:49.841Z,10.70
2023-12-11T22:49:18.735Z,10.70
2023-12-11T22:51:46.885Z,10.70
2023-12-11T22:54:16.101Z,10.70
2023-12-11T22:56:43.922Z,10.70
2023-12-11T23:01:40.183Z,10.70
2023-12-11T23:04:08.188Z,10.70
2023-12-11T23:06:38.919Z,10.70
2023-12-11T23:09:09.837Z,10.70
2023-12-11T23:11:39.001Z,10.70
2023-12-11T23:14:06.794Z,10.70
2023-12-11T23:16:34.728Z,10.60
2023-12-11T23:19:04.924Z,10.60
2023-12-11T23:21:34.980Z,10.50
2023-12-11T23:24:03.571Z,10.50
2023-12-11T23:26:31.862Z,10.50
2023-12-11T23:29:01.136Z,10.60
2023-12-11T23:31:28.992Z,10.50
2023-12-11T23:33:57.005Z,10.60
2023-12-11T23:36:24.859Z,10.60
2023-12-11T23:38:52.671Z,10.60
2023-12-11T23:41:20.481Z,10.60
2023-12-11T23:43:48.286Z,10.40
2023-12-11T23:46:17.510Z,10.40
2023-12-11T23:48:45.741Z,10.40
2023-12-11T23:51:13.772Z,10.40
2023-12-11T23:53:43.801Z,10.40
2023-12-11T23:56:11.708Z,10.40
2023-12-11T23:58:39.558Z,10.30
